sensor_id;sensor_type;location;lat;lon;timestamp;pressure;altitude;pressure_sealevel;temperature;humidity
71573;BME280;59408;51.032;9.410;2022-07-24T00:01:22;99495.91;;;13.05;85.04
71573;BME280;59408;51.032;9.410;2022-07-24T00:03:50;99492.69;;;13.03;84.18
71573;BME280;59408;51.032;9.410;2022-07-24T00:06:17;99490.19;;;12.98;84.07
71573;BME280;59408;51.032;9.410;2022-07-24T00:08:44;99496.25;;;12.91;84.29
71573;BME280;59408;51.032;9.410;2022-07-24T00:11:12;99493.28;;;12.84;84.49
71573;BME280;59408;51.032;9.410;2022-07-24T00:13:39;99490.91;;;12.82;86.07
71573;BME280;59408;51.032;9.410;2022-07-24T00:16:06;99483.69;;;12.78;85.46
71573;BME280;59408;51.032;9.410;2022-07-24T00:18:32;99488.38;;;12.77;84.82
71573;BME280;59408;51.032;9.410;2022-07-24T00:20:59;99483.16;;;12.72;85.57
71573;BME280;59408;51.032;9.410;2022-07-24T00:23:26;99487.69;;;12.68;86.33
71573;BME280;59408;51.032;9.410;2022-07-24T00:25:53;99492.38;;;12.56;85.97
71573;BME280;59408;51.032;9.410;2022-07-24T00:28:21;99493.59;;;12.58;85.93
71573;BME280;59408;51.032;9.410;2022-07-24T00:30:48;99488.84;;;12.55;86.25
71573;BME280;59408;51.032;9.410;2022-07-24T00:33:16;99483.25;;;12.52;87.11
71573;BME280;59408;51.032;9.410;2022-07-24T00:35:44;99492.91;;;12.49;87.58
71573;BME280;59408;51.032;9.410;2022-07-24T00:38:10;99487.00;;;12.47;87.21
71573;BME280;59408;51.032;9.410;2022-07-24T00:40:37;99479.81;;;12.42;86.27
71573;BME280;59408;51.032;9.410;2022-07-24T00:43:04;99481.28;;;12.40;86.38
71573;BME280;59408;51.032;9.410;2022-07-24T00:45:33;99479.25;;;12.37;86.37
71573;BME280;59408;51.032;9.410;2022-07-24T00:48:00;99470.56;;;12.35;85.99
71573;BME280;59408;51.032;9.410;2022-07-24T00:50:27;99479.09;;;12.33;86.67
71573;BME280;59408;51.032;9.410;2022-07-24T00:52:55;99479.78;;;12.30;86.55
71573;BME280;59408;51.032;9.410;2022-07-24T00:55:22;99488.34;;;12.29;86.59
71573;BME280;59408;51.032;9.410;2022-07-24T00:57:48;99476.34;;;12.21;86.36
71573;BME280;59408;51.032;9.410;2022-07-24T01:00:16;99485.91;;;12.15;86.96
71573;BME280;59408;51.032;9.410;2022-07-24T01:02:45;99483.69;;;12.08;87.75
71573;BME280;59408;51.032;9.410;2022-07-24T01:05:12;99479.38;;;12.07;88.21
71573;BME280;59408;51.032;9.410;2022-07-24T01:07:39;99480.50;;;12.06;87.02
71573;BME280;59408;51.032;9.410;2022-07-24T01:10:06;99477.28;;;12.04;87.06
71573;BME280;59408;51.032;9.410;2022-07-24T01:12:34;99486.63;;;12.03;86.99
71573;BME280;59408;51.032;9.410;2022-07-24T01:15:01;99474.31;;;11.97;87.52
71573;BME280;59408;51.032;9.410;2022-07-24T01:17:29;99481.16;;;11.91;89.54
71573;BME280;59408;51.032;9.410;2022-07-24T01:19:57;99471.09;;;11.83;88.10
71573;BME280;59408;51.032;9.410;2022-07-24T01:22:26;99475.41;;;11.84;88.64
71573;BME280;59408;51.032;9.410;2022-07-24T01:24:53;99473.84;;;11.83;87.87
71573;BME280;59408;51.032;9.410;2022-07-24T01:27:20;99477.22;;;11.80;88.31
71573;BME280;59408;51.032;9.410;2022-07-24T01:29:47;99472.56;;;11.81;87.08
71573;BME280;59408;51.032;9.410;2022-07-24T01:32:14;99483.81;;;11.79;87.99
71573;BME280;59408;51.032;9.410;2022-07-24T01:34:41;99475.03;;;11.73;88.77
71573;BME280;59408;51.032;9.410;2022-07-24T01:37:08;99481.63;;;11.72;88.43
71573;BME280;59408;51.032;9.410;2022-07-24T01:39:36;99478.75;;;11.69;89.07
71573;BME280;59408;51.032;9.410;2022-07-24T01:42:03;99480.91;;;11.63;88.24
71573;BME280;59408;51.032;9.410;2022-07-24T01:44:29;99473.06;;;11.62;89.89
71573;BME280;59408;51.032;9.410;2022-07-24T01:46:56;99477.56;;;11.58;89.18
71573;BME280;59408;51.032;9.410;2022-07-24T01:49:22;99480.06;;;11.51;89.05
71573;BME280;59408;51.032;9.410;2022-07-24T01:51:49;99476.50;;;11.50;89.20
71573;BME280;59408;51.032;9.410;2022-07-24T01:54:15;99468.22;;;11.47;89.21
71573;BME280;59408;51.032;9.410;2022-07-24T01:56:43;99472.41;;;11.44;90.03
71573;BME280;59408;51.032;9.410;2022-07-24T01:59:11;99470.31;;;11.41;89.86
71573;BME280;59408;51.032;9.410;2022-07-24T02:01:39;99472.59;;;11.39;89.01
71573;BME280;59408;51.032;9.410;2022-07-24T02:04:05;99465.19;;;11.40;89.54
71573;BME280;59408;51.032;9.410;2022-07-24T02:06:32;99463.59;;;11.38;89.56
71573;BME280;59408;51.032;9.410;2022-07-24T02:08:59;99461.88;;;11.34;89.89
71573;BME280;59408;51.032;9.410;2022-07-24T02:11:25;99464.13;;;11.32;89.00
71573;BME280;59408;51.032;9.410;2022-07-24T02:13:53;99458.88;;;11.27;90.95
71573;BME280;59408;51.032;9.410;2022-07-24T02:16:20;99458.41;;;11.25;88.92
71573;BME280;59408;51.032;9.410;2022-07-24T02:18:47;99451.00;;;11.25;88.32
71573;BME280;59408;51.032;9.410;2022-07-24T02:21:13;99469.66;;;11.23;89.85
71573;BME280;59408;51.032;9.410;2022-07-24T02:23:40;99467.56;;;11.20;90.24
71573;BME280;59408;51.032;9.410;2022-07-24T02:26:06;99463.59;;;11.18;90.17
71573;BME280;59408;51.032;9.410;2022-07-24T02:28:33;99466.50;;;11.13;88.29
71573;BME280;59408;51.032;9.410;2022-07-24T02:31:01;99466.19;;;11.14;90.30
71573;BME280;59408;51.032;9.410;2022-07-24T02:33:27;99475.84;;;11.12;90.14
71573;BME280;59408;51.032;9.410;2022-07-24T02:35:54;99475.72;;;11.08;90.18
71573;BME280;59408;51.032;9.410;2022-07-24T02:38:21;99468.19;;;11.05;90.70
71573;BME280;59408;51.032;9.410;2022-07-24T02:40:47;99473.16;;;11.03;90.59
71573;BME280;59408;51.032;9.410;2022-07-24T02:43:14;99473.38;;;10.98;90.92
71573;BME280;59408;51.032;9.410;2022-07-24T02:45:40;99478.50;;;10.99;90.82
71573;BME280;59408;51.032;9.410;2022-07-24T02:48:08;99484.94;;;10.95;91.27
71573;BME280;59408;51.032;9.410;2022-07-24T02:50:37;99486.41;;;10.92;91.10
71573;BME280;59408;51.032;9.410;2022-07-24T02:53:04;99485.78;;;10.87;91.84
71573;BME280;59408;51.032;9.410;2022-07-24T02:55:31;99483.38;;;10.85;91.59
71573;BME280;59408;51.032;9.410;2022-07-24T02:57:57;99484.97;;;10.86;91.24
71573;BME280;59408;51.032;9.410;2022-07-24T03:00:24;99482.94;;;10.83;90.79
71573;BME280;59408;51.032;9.410;2022-07-24T03:02:50;99485.50;;;10.80;91.88
71573;BME280;59408;51.032;9.410;2022-07-24T03:05:18;99491.47;;;10.73;92.55
71573;BME280;59408;51.032;9.410;2022-07-24T03:07:45;99504.94;;;10.70;92.39
71573;BME280;59408;51.032;9.410;2022-07-24T03:10:13;99493.88;;;10.66;91.73
71573;BME280;59408;51.032;9.410;2022-07-24T03:12:40;99491.94;;;10.67;91.91
71573;BME280;59408;51.032;9.410;2022-07-24T03:15:08;99490.69;;;10.64;92.28
71573;BME280;59408;51.032;9.410;2022-07-24T03:17:35;99491.03;;;10.62;92.59
71573;BME280;59408;51.032;9.410;2022-07-24T03:20:03;99487.00;;;10.60;93.08
71573;BME280;59408;51.032;9.410;2022-07-24T03:22:31;99490.88;;;10.59;92.24
71573;BME280;59408;51.032;9.410;2022-07-24T03:24:57;99479.94;;;10.59;92.07
71573;BME280;59408;51.032;9.410;2022-07-24T03:27:24;99483.47;;;10.59;92.34
71573;BME280;59408;51.032;9.410;2022-07-24T03:29:50;99490.06;;;10.58;91.99
71573;BME280;59408;51.032;9.410;2022-07-24T03:32:18;99478.66;;;10.56;91.83
71573;BME280;59408;51.032;9.410;2022-07-24T03:34:45;99486.09;;;10.56;92.48
71573;BME280;59408;51.032;9.410;2022-07-24T03:37:11;99482.19;;;10.57;91.88
71573;BME280;59408;51.032;9.410;2022-07-24T03:39:39;99482.88;;;10.54;91.26
71573;BME280;59408;51.032;9.410;2022-07-24T03:42:06;99485.94;;;10.52;92.27
71573;BME280;59408;51.032;9.410;2022-07-24T03:44:32;99487.38;;;10.50;91.03
71573;BME280;59408;51.032;9.410;2022-07-24T03:46:59;99483.72;;;10.46;91.26
71573;BME280;59408;51.032;9.410;2022-07-24T03:49:26;99484.84;;;10.45;92.06
71573;BME280;59408;51.032;9.410;2022-07-24T03:51:54;99491.53;;;10.47;92.03
71573;BME280;59408;51.032;9.410;2022-07-24T03:54:21;99497.81;;;10.48;93.39
71573;BME280;59408;51.032;9.410;2022-07-24T03:56:49;99494.75;;;10.49;92.60
71573;BME280;59408;51.032;9.410;2022-07-24T03:59:15;99493.63;;;10.50;92.94
71573;BME280;59408;51.032;9.410;2022-07-24T04:01:42;99487.06;;;10.51;93.56
71573;BME280;59408;51.032;9.410;2022-07-24T04:04:09;99487.38;;;10.50;92.36
71573;BME280;59408;51.032;9.410;2022-07-24T04:06:36;99492.97;;;10.53;92.80
71573;BME280;59408;51.032;9.410;2022-07-24T04:09:04;99493.47;;;10.55;92.54
71573;BME280;59408;51.032;9.410;2022-07-24T04:11:31;99489.25;;;10.58;92.24
71573;BME280;59408;51.032;9.410;2022-07-24T04:13:59;99492.78;;;10.58;92.29
71573;BME280;59408;51.032;9.410;2022-07-24T04:16:26;99490.88;;;10.59;91.97
71573;BME280;59408;51.032;9.410;2022-07-24T04:18:53;99494.41;;;10.59;91.58
71573;BME280;59408;51.032;9.410;2022-07-24T04:21:19;99492.63;;;10.63;91.76
71573;BME280;59408;51.032;9.410;2022-07-24T04:23:46;99497.75;;;10.65;91.72
71573;BME280;59408;51.032;9.410;2022-07-24T04:26:12;99495.47;;;10.67;91.79
71573;BME280;59408;51.032;9.410;2022-07-24T04:28:39;99495.97;;;10.69;93.05
71573;BME280;59408;51.032;9.410;2022-07-24T04:31:07;99487.13;;;10.72;93.97
71573;BME280;59408;51.032;9.410;2022-07-24T04:33:34;99480.38;;;10.78;93.34
71573;BME280;59408;51.032;9.410;2022-07-24T04:36:01;99491.13;;;10.83;92.56
71573;BME280;59408;51.032;9.410;2022-07-24T04:38:27;99489.47;;;10.91;92.85
71573;BME280;59408;51.032;9.410;2022-07-24T04:40:54;99486.22;;;10.97;92.66
71573;BME280;59408;51.032;9.410;2022-07-24T04:43:20;99476.56;;;11.00;92.17
71573;BME280;59408;51.032;9.410;2022-07-24T04:45:47;99480.84;;;11.10;93.07
71573;BME280;59408;51.032;9.410;2022-07-24T04:48:15;99472.13;;;11.16;92.86
71573;BME280;59408;51.032;9.410;2022-07-24T04:50:41;99466.94;;;11.23;92.06
71573;BME280;59408;51.032;9.410;2022-07-24T04:53:08;99472.22;;;11.28;91.23
71573;BME280;59408;51.032;9.410;2022-07-24T04:55:35;99479.72;;;11.31;91.77
71573;BME280;59408;51.032;9.410;2022-07-24T04:58:01;99485.78;;;11.37;91.66
71573;BME280;59408;51.032;9.410;2022-07-24T05:00:28;99479.00;;;11.43;91.32
71573;BME280;59408;51.032;9.410;2022-07-24T05:02:55;99484.06;;;11.53;90.47
71573;BME280;59408;51.032;9.410;2022-07-24T05:05:23;99483.66;;;11.63;89.98
71573;BME280;59408;51.032;9.410;2022-07-24T05:07:49;99484.84;;;11.74;90.17
71573;BME280;59408;51.032;9.410;2022-07-24T05:10:16;99479.31;;;11.83;90.35
71573;BME280;59408;51.032;9.410;2022-07-24T05:12:43;99486.28;;;11.93;89.86
71573;BME280;59408;51.032;9.410;2022-07-24T05:15:10;99492.00;;;12.00;88.90
71573;BME280;59408;51.032;9.410;2022-07-24T05:17:37;99484.59;;;12.12;88.45
71573;BME280;59408;51.032;9.410;2022-07-24T05:20:04;99487.28;;;12.21;88.91
71573;BME280;59408;51.032;9.410;2022-07-24T05:22:33;99488.78;;;12.31;88.68
71573;BME280;59408;51.032;9.410;2022-07-24T05:24:59;99499.75;;;12.43;87.81
71573;BME280;59408;51.032;9.410;2022-07-24T05:27:26;99488.72;;;12.52;87.03
71573;BME280;59408;51.032;9.410;2022-07-24T05:29:52;99484.50;;;12.66;86.53
71573;BME280;59408;51.032;9.410;2022-07-24T05:32:19;99485.63;;;12.77;86.31
71573;BME280;59408;51.032;9.410;2022-07-24T05:34:46;99492.94;;;12.85;85.46
71573;BME280;59408;51.032;9.410;2022-07-24T05:37:12;99487.59;;;13.01;84.88
71573;BME280;59408;51.032;9.410;2022-07-24T05:39:40;99479.00;;;13.15;86.07
71573;BME280;59408;51.032;9.410;2022-07-24T05:42:07;99481.38;;;13.29;85.43
71573;BME280;59408;51.032;9.410;2022-07-24T05:44:33;99479.09;;;13.43;85.31
71573;BME280;59408;51.032;9.410;2022-07-24T05:47:00;99477.00;;;13.52;82.11
71573;BME280;59408;51.032;9.410;2022-07-24T05:49:27;99472.47;;;13.72;83.26
71573;BME280;59408;51.032;9.410;2022-07-24T05:51:53;99477.22;;;13.87;83.47
71573;BME280;59408;51.032;9.410;2022-07-24T05:54:20;99483.09;;;14.01;80.92
71573;BME280;59408;51.032;9.410;2022-07-24T05:56:48;99479.94;;;14.15;80.71
71573;BME280;59408;51.032;9.410;2022-07-24T05:59:15;99481.13;;;14.29;80.76
71573;BME280;59408;51.032;9.410;2022-07-24T06:01:41;99475.53;;;14.42;80.20
71573;BME280;59408;51.032;9.410;2022-07-24T06:04:08;99472.38;;;14.55;80.33
71573;BME280;59408;51.032;9.410;2022-07-24T06:06:35;99471.22;;;14.72;81.62
71573;BME280;59408;51.032;9.410;2022-07-24T06:09:02;99469.88;;;14.82;80.13
71573;BME280;59408;51.032;9.410;2022-07-24T06:11:29;99477.31;;;14.97;79.61
71573;BME280;59408;51.032;9.410;2022-07-24T06:13:57;99471.34;;;15.11;79.04
71573;BME280;59408;51.032;9.410;2022-07-24T06:16:25;99477.16;;;15.25;78.66
71573;BME280;59408;51.032;9.410;2022-07-24T06:18:52;99476.22;;;15.36;78.40
71573;BME280;59408;51.032;9.410;2022-07-24T06:21:18;99467.41;;;15.46;78.58
71573;BME280;59408;51.032;9.410;2022-07-24T06:23:45;99472.97;;;15.66;78.65
71573;BME280;59408;51.032;9.410;2022-07-24T06:26:11;99464.97;;;15.80;77.87
71573;BME280;59408;51.032;9.410;2022-07-24T06:28:38;99464.31;;;15.87;78.42
71573;BME280;59408;51.032;9.410;2022-07-24T06:31:06;99467.19;;;15.94;78.24
71573;BME280;59408;51.032;9.410;2022-07-24T06:33:34;99461.50;;;16.02;76.45
71573;BME280;59408;51.032;9.410;2022-07-24T06:36:00;99462.31;;;16.26;76.51
71573;BME280;59408;51.032;9.410;2022-07-24T06:38:27;99464.81;;;16.34;76.13
71573;BME280;59408;51.032;9.410;2022-07-24T06:40:55;99460.41;;;16.52;76.42
71573;BME280;59408;51.032;9.410;2022-07-24T06:43:21;99464.59;;;16.66;75.28
71573;BME280;59408;51.032;9.410;2022-07-24T06:45:48;99460.84;;;16.77;75.69
71573;BME280;59408;51.032;9.410;2022-07-24T06:48:16;99465.16;;;16.75;74.70
71573;BME280;59408;51.032;9.410;2022-07-24T06:50:42;99467.00;;;16.93;75.16
71573;BME280;59408;51.032;9.410;2022-07-24T06:53:09;99466.94;;;17.16;74.07
71573;BME280;59408;51.032;9.410;2022-07-24T06:55:35;99460.16;;;17.10;73.48
71573;BME280;59408;51.032;9.410;2022-07-24T06:58:02;99449.66;;;17.19;73.59
71573;BME280;59408;51.032;9.410;2022-07-24T07:00:29;99455.72;;;17.32;73.39
71573;BME280;59408;51.032;9.410;2022-07-24T07:02:55;99460.56;;;17.39;73.47
71573;BME280;59408;51.032;9.410;2022-07-24T07:05:23;99457.56;;;17.51;72.81
71573;BME280;59408;51.032;9.410;2022-07-24T07:07:50;99459.81;;;17.72;73.62
71573;BME280;59408;51.032;9.410;2022-07-24T07:10:16;99453.63;;;17.82;72.15
71573;BME280;59408;51.032;9.410;2022-07-24T07:12:43;99447.38;;;17.88;71.52
71573;BME280;59408;51.032;9.410;2022-07-24T07:15:10;99449.91;;;18.00;71.05
71573;BME280;59408;51.032;9.410;2022-07-24T07:17:40;99448.94;;;18.23;71.25
71573;BME280;59408;51.032;9.410;2022-07-24T07:20:09;99459.09;;;18.52;69.88
71573;BME280;59408;51.032;9.410;2022-07-24T07:22:40;99458.13;;;18.34;68.74
71573;BME280;59408;51.032;9.410;2022-07-24T07:25:07;99460.44;;;18.28;70.51
71573;BME280;59408;51.032;9.410;2022-07-24T07:27:40;99463.38;;;18.46;67.57
71573;BME280;59408;51.032;9.410;2022-07-24T07:30:07;99458.41;;;18.62;68.07
71573;BME280;59408;51.032;9.410;2022-07-24T07:32:34;99447.56;;;18.94;67.46
71573;BME280;59408;51.032;9.410;2022-07-24T07:35:00;99451.59;;;19.04;67.53
71573;BME280;59408;51.032;9.410;2022-07-24T07:37:30;99454.78;;;19.09;66.97
71573;BME280;59408;51.032;9.410;2022-07-24T07:39:58;99452.91;;;19.24;65.64
71573;BME280;59408;51.032;9.410;2022-07-24T07:42:25;99458.94;;;19.37;66.24
71573;BME280;59408;51.032;9.410;2022-07-24T07:44:52;99453.47;;;19.47;64.16
71573;BME280;59408;51.032;9.410;2022-07-24T07:47:18;99458.72;;;19.74;64.02
71573;BME280;59408;51.032;9.410;2022-07-24T07:49:45;99464.34;;;20.02;64.11
71573;BME280;59408;51.032;9.410;2022-07-24T07:52:11;99460.75;;;20.05;63.19
71573;BME280;59408;51.032;9.410;2022-07-24T07:54:38;99454.09;;;20.24;63.27
71573;BME280;59408;51.032;9.410;2022-07-24T07:57:06;99459.28;;;20.36;61.07
71573;BME280;59408;51.032;9.410;2022-07-24T07:59:33;99459.31;;;20.75;61.00
71573;BME280;59408;51.032;9.410;2022-07-24T08:01:59;99463.63;;;20.87;59.41
71573;BME280;59408;51.032;9.410;2022-07-24T08:04:26;99457.69;;;21.20;59.76
71573;BME280;59408;51.032;9.410;2022-07-24T08:06:52;99463.56;;;21.47;57.90
71573;BME280;59408;51.032;9.410;2022-07-24T08:09:19;99463.13;;;21.56;58.04
71573;BME280;59408;51.032;9.410;2022-07-24T08:11:46;99466.63;;;21.70;56.64
71573;BME280;59408;51.032;9.410;2022-07-24T08:14:14;99460.19;;;21.95;55.55
71573;BME280;59408;51.032;9.410;2022-07-24T08:16:41;99451.06;;;21.98;55.96
71573;BME280;59408;51.032;9.410;2022-07-24T08:19:07;99456.19;;;22.03;54.54
71573;BME280;59408;51.032;9.410;2022-07-24T08:21:35;99453.91;;;22.53;56.40
71573;BME280;59408;51.032;9.410;2022-07-24T08:24:02;99457.50;;;22.95;56.23
71573;BME280;59408;51.032;9.410;2022-07-24T08:26:38;99454.41;;;22.85;54.35
71573;BME280;59408;51.032;9.410;2022-07-24T08:29:05;99456.19;;;23.06;52.59
71573;BME280;59408;51.032;9.410;2022-07-24T08:31:34;99452.25;;;23.45;54.14
71573;BME280;59408;51.032;9.410;2022-07-24T08:34:01;99456.50;;;23.56;50.98
71573;BME280;59408;51.032;9.410;2022-07-24T08:36:28;99461.16;;;23.67;51.91
71573;BME280;59408;51.032;9.410;2022-07-24T08:38:54;99454.44;;;23.91;51.99
71573;BME280;59408;51.032;9.410;2022-07-24T08:41:21;99456.50;;;24.44;50.89
71573;BME280;59408;51.032;9.410;2022-07-24T08:43:53;99455.66;;;24.74;50.68
71573;BME280;59408;51.032;9.410;2022-07-24T08:46:20;99452.91;;;24.94;50.39
71573;BME280;59408;51.032;9.410;2022-07-24T08:48:49;99450.66;;;25.08;48.20
71573;BME280;59408;51.032;9.410;2022-07-24T08:51:17;99452.31;;;25.26;46.31
71573;BME280;59408;51.032;9.410;2022-07-24T08:53:44;99449.22;;;25.63;46.76
71573;BME280;59408;51.032;9.410;2022-07-24T08:56:10;99444.47;;;26.00;45.33
71573;BME280;59408;51.032;9.410;2022-07-24T08:58:37;99442.84;;;26.35;44.53
71573;BME280;59408;51.032;9.410;2022-07-24T09:01:04;99438.06;;;26.51;41.60
71573;BME280;59408;51.032;9.410;2022-07-24T09:03:38;99442.09;;;26.83;41.28
71573;BME280;59408;51.032;9.410;2022-07-24T09:06:07;99442.16;;;26.96;41.37
71573;BME280;59408;51.032;9.410;2022-07-24T09:08:34;99445.91;;;27.05;38.81
71573;BME280;59408;51.032;9.410;2022-07-24T09:11:02;99436.53;;;27.12;38.56
71573;BME280;59408;51.032;9.410;2022-07-24T09:13:31;99434.63;;;27.09;38.59
71573;BME280;59408;51.032;9.410;2022-07-24T09:15:58;99432.22;;;27.52;40.14
71573;BME280;59408;51.032;9.410;2022-07-24T09:18:26;99423.38;;;27.54;39.46
71573;BME280;59408;51.032;9.410;2022-07-24T09:20:54;99432.41;;;27.74;39.26
71573;BME280;59408;51.032;9.410;2022-07-24T09:23:22;99430.59;;;27.67;38.06
71573;BME280;59408;51.032;9.410;2022-07-24T09:25:50;99431.91;;;27.92;38.04
71573;BME280;59408;51.032;9.410;2022-07-24T09:28:17;99434.03;;;28.26;38.67
71573;BME280;59408;51.032;9.410;2022-07-24T09:30:46;99430.44;;;28.76;36.41
71573;BME280;59408;51.032;9.410;2022-07-24T09:33:15;99423.50;;;28.30;37.78
71573;BME280;59408;51.032;9.410;2022-07-24T09:35:44;99432.09;;;28.86;36.91
71573;BME280;59408;51.032;9.410;2022-07-24T09:38:12;99425.66;;;28.98;36.18
71573;BME280;59408;51.032;9.410;2022-07-24T09:40:44;99426.34;;;29.02;36.89
71573;BME280;59408;51.032;9.410;2022-07-24T09:43:30;99424.16;;;29.41;38.23
71573;BME280;59408;51.032;9.410;2022-07-24T09:46:01;99419.31;;;29.63;36.85
71573;BME280;59408;51.032;9.410;2022-07-24T09:48:31;99407.84;;;29.36;36.89
71573;BME280;59408;51.032;9.410;2022-07-24T09:51:00;99409.97;;;29.97;36.54
71573;BME280;59408;51.032;9.410;2022-07-24T09:53:29;99409.50;;;29.99;35.89
71573;BME280;59408;51.032;9.410;2022-07-24T09:56:03;99412.41;;;28.99;35.32
71573;BME280;59408;51.032;9.410;2022-07-24T09:58:32;99405.72;;;29.62;36.03
71573;BME280;59408;51.032;9.410;2022-07-24T10:00:59;99404.28;;;29.88;34.18
71573;BME280;59408;51.032;9.410;2022-07-24T10:03:28;99415.88;;;29.59;35.33
71573;BME280;59408;51.032;9.410;2022-07-24T10:05:57;99398.81;;;29.84;34.08
71573;BME280;59408;51.032;9.410;2022-07-24T10:08:24;99394.78;;;30.26;34.44
71573;BME280;59408;51.032;9.410;2022-07-24T10:10:52;99396.41;;;29.74;34.30
71573;BME280;59408;51.032;9.410;2022-07-24T10:13:25;99393.16;;;29.54;34.95
71573;BME280;59408;51.032;9.410;2022-07-24T10:16:08;99385.34;;;29.79;35.23
71573;BME280;59408;51.032;9.410;2022-07-24T10:18:46;99391.50;;;30.27;33.74
71573;BME280;59408;51.032;9.410;2022-07-24T10:21:16;99385.03;;;30.57;35.04
71573;BME280;59408;51.032;9.410;2022-07-24T10:23:59;99386.78;;;30.64;32.52
71573;BME280;59408;51.032;9.410;2022-07-24T10:26:34;99385.69;;;30.71;32.86
71573;BME280;59408;51.032;9.410;2022-07-24T10:29:06;99388.84;;;31.09;32.72
71573;BME280;59408;51.032;9.410;2022-07-24T10:31:34;99388.88;;;31.18;32.66
71573;BME280;59408;51.032;9.410;2022-07-24T10:34:06;99382.09;;;31.43;32.80
71573;BME280;59408;51.032;9.410;2022-07-24T10:36:41;99380.53;;;31.15;31.60
71573;BME280;59408;51.032;9.410;2022-07-24T10:39:20;99378.97;;;30.77;32.20
71573;BME280;59408;51.032;9.410;2022-07-24T10:42:00;99375.13;;;30.44;32.92
71573;BME280;59408;51.032;9.410;2022-07-24T10:44:28;99368.78;;;30.98;34.11
71573;BME280;59408;51.032;9.410;2022-07-24T10:47:00;99359.03;;;30.53;32.71
71573;BME280;59408;51.032;9.410;2022-07-24T10:49:44;99355.94;;;31.33;33.68
71573;BME280;59408;51.032;9.410;2022-07-24T10:52:21;99355.97;;;31.24;32.90
71573;BME280;59408;51.032;9.410;2022-07-24T10:54:49;99354.03;;;30.39;33.20
71573;BME280;59408;51.032;9.410;2022-07-24T10:57:47;99345.00;;;30.81;33.28
71573;BME280;59408;51.032;9.410;2022-07-24T11:00:25;99355.47;;;31.44;32.86
71573;BME280;59408;51.032;9.410;2022-07-24T11:02:57;99340.25;;;31.51;32.20
71573;BME280;59408;51.032;9.410;2022-07-24T11:05:29;99351.59;;;32.17;32.29
71573;BME280;59408;51.032;9.410;2022-07-24T11:11:05;99337.41;;;32.02;30.97
71573;BME280;59408;51.032;9.410;2022-07-24T11:13:52;99338.28;;;32.17;30.40
71573;BME280;59408;51.032;9.410;2022-07-24T11:16:30;99337.41;;;32.02;31.34
71573;BME280;59408;51.032;9.410;2022-07-24T11:19:29;99340.22;;;32.35;31.82
71573;BME280;59408;51.032;9.410;2022-07-24T11:22:10;99332.09;;;32.04;31.21
71573;BME280;59408;51.032;9.410;2022-07-24T11:25:12;99332.09;;;31.53;33.02
71573;BME280;59408;51.032;9.410;2022-07-24T11:27:56;99328.84;;;32.77;32.02
71573;BME280;59408;51.032;9.410;2022-07-24T11:30:24;99325.03;;;32.80;30.13
71573;BME280;59408;51.032;9.410;2022-07-24T11:32:52;99328.47;;;32.99;30.34
71573;BME280;59408;51.032;9.410;2022-07-24T11:35:27;99330.13;;;32.91;29.24
71573;BME280;59408;51.032;9.410;2022-07-24T11:37:54;99316.19;;;33.02;29.52
71573;BME280;59408;51.032;9.410;2022-07-24T11:40:21;99309.03;;;33.45;29.71
71573;BME280;59408;51.032;9.410;2022-07-24T11:42:54;99297.94;;;34.67;31.09
71573;BME280;59408;51.032;9.410;2022-07-24T11:45:21;99309.59;;;33.64;29.43
71573;BME280;59408;51.032;9.410;2022-07-24T11:47:47;99297.50;;;34.33;29.67
71573;BME280;59408;51.032;9.410;2022-07-24T11:50:20;99290.13;;;34.61;28.92
71573;BME280;59408;51.032;9.410;2022-07-24T11:52:47;99286.75;;;35.24;28.50
71573;BME280;59408;51.032;9.410;2022-07-24T11:55:15;99298.72;;;34.67;27.82
71573;BME280;59408;51.032;9.410;2022-07-24T11:57:46;99295.16;;;34.92;28.49
71573;BME280;59408;51.032;9.410;2022-07-24T12:00:33;99296.75;;;33.98;29.12
71573;BME280;59408;51.032;9.410;2022-07-24T12:03:00;99303.78;;;34.02;27.95
71573;BME280;59408;51.032;9.410;2022-07-24T12:05:31;99292.22;;;33.85;29.77
71573;BME280;59408;51.032;9.410;2022-07-24T12:07:59;99297.31;;;34.37;28.04
71573;BME280;59408;51.032;9.410;2022-07-24T12:10:26;99291.66;;;34.77;28.30
71573;BME280;59408;51.032;9.410;2022-07-24T12:12:54;99281.63;;;34.61;28.72
71573;BME280;59408;51.032;9.410;2022-07-24T12:15:23;99291.41;;;34.81;27.75
71573;BME280;59408;51.032;9.410;2022-07-24T12:17:56;99282.59;;;35.25;26.67
71573;BME280;59408;51.032;9.410;2022-07-24T12:20:24;99286.19;;;34.74;26.21
71573;BME280;59408;51.032;9.410;2022-07-24T12:22:53;99291.94;;;34.39;27.79
71573;BME280;59408;51.032;9.410;2022-07-24T12:25:20;99282.72;;;35.67;26.83
71573;BME280;59408;51.032;9.410;2022-07-24T12:27:47;99272.50;;;35.50;25.65
71573;BME280;59408;51.032;9.410;2022-07-24T12:30:19;99271.38;;;34.84;26.31
71573;BME280;59408;51.032;9.410;2022-07-24T12:33:00;99274.63;;;35.60;27.20
71573;BME280;59408;51.032;9.410;2022-07-24T12:35:29;99264.47;;;36.17;26.25
71573;BME280;59408;51.032;9.410;2022-07-24T12:37:58;99268.84;;;35.44;26.43
71573;BME280;59408;51.032;9.410;2022-07-24T12:40:28;99253.16;;;35.85;28.29
71573;BME280;59408;51.032;9.410;2022-07-24T12:43:00;99261.84;;;35.39;26.73
71573;BME280;59408;51.032;9.410;2022-07-24T12:45:28;99252.53;;;35.70;25.54
71573;BME280;59408;51.032;9.410;2022-07-24T12:48:16;99248.88;;;35.64;25.97
71573;BME280;59408;51.032;9.410;2022-07-24T12:51:07;99255.41;;;35.39;24.99
71573;BME280;59408;51.032;9.410;2022-07-24T12:53:38;99258.50;;;34.22;26.73
71573;BME280;59408;51.032;9.410;2022-07-24T12:56:07;99250.75;;;34.03;27.25
71573;BME280;59408;51.032;9.410;2022-07-24T12:58:51;99236.03;;;35.68;26.52
71573;BME280;59408;51.032;9.410;2022-07-24T13:01:18;99240.22;;;35.42;26.26
71573;BME280;59408;51.032;9.410;2022-07-24T13:03:51;99233.78;;;35.47;25.63
71573;BME280;59408;51.032;9.410;2022-07-24T13:06:23;99227.16;;;35.98;25.64
71573;BME280;59408;51.032;9.410;2022-07-24T13:08:57;99229.50;;;35.62;25.37
71573;BME280;59408;51.032;9.410;2022-07-24T13:11:24;99220.00;;;36.14;25.47